Latest Weather Observations for Gelantipy

IDV60801

Issued at 10:35 am EDT Monday 24 November 2014 (issued every 30 minutes, with the page automatically refreshed every 10 minutes)

About weather observations | Map of weather stations | Latest weather observations for VIC | Other Formats
Station Details ID: 084142 Name: GELANTIPY Lat: -37.22 Lon: 148.26 Height: 755.0 m
Data from the previous 72 hours. | See also: Recent months at Gelantipy
Date/Time
EDT
Temp
°C
App
Temp
°C
Dew
Point
Rel
Hum
%
Delta-T
°C
Wind Press
QNH
hPa
Press
MSL
hPa
Rain
since 9 am
mm
Dir
 
Spd
km/h
Gust
km/h
Spd
kts
Gust
kts
24/10:30am 21.9 19.5 12.5 55 5.5 N 17 39 9 21 1011.0 1009.4 0.0
24/10:00am 21.5 17.9 13.2 59 4.9 NNE 24 35 13 19 1011.7 1010.1 0.0
24/09:30am 22.0 19.4 13.1 57 5.3 NNW 19 37 10 20 1012.0 1010.4 0.0
24/09:00am 19.6 16.5 12.1 62 4.3 NNE 20 37 11 20 1012.3 1010.7 0.0
24/08:30am 18.2 14.2 11.7 66 3.7 NNE 24 30 13 16 1012.1 1010.5 0.0
24/08:00am 17.8 14.5 11.6 67 3.5 N 20 28 11 15 1012.3 1010.7 0.0
24/07:30am 18.9 16.1 11.5 62 4.2 NE 17 20 9 11 1012.2 1010.6 0.0
24/07:00am 16.7 13.4 11.0 69 3.2 NNE 19 22 10 12 1012.3 1010.7 0.0
24/06:30am 16.5 13.3 11.2 71 3.0 NNE 19 22 10 12 1012.6 1011.0 0.0
24/06:00am 15.4 12.6 11.2 76 2.3 NNE 17 20 9 11 1013.3 1011.7 0.0
24/05:30am 15.7 12.3 11.3 75 2.5 NNE 20 26 11 14 1013.0 1011.4 0.0
24/05:00am 14.4 11.4 10.6 78 2.1 NNE 17 19 9 10 1012.9 1011.3 0.0
24/04:30am 14.6 12.4 10.8 78 2.1 NNE 13 19 7 10 1013.2 1011.6 0.0
24/04:00am 16.4 13.4 10.5 68 3.3 N 17 24 9 13 1013.3 1011.7 0.0
24/03:30am 17.4 14.3 10.3 63 3.9 N 17 22 9 12 1013.5 1011.9 0.0
24/03:00am 20.1 17.9 10.8 55 5.3 N 13 17 7 9 1013.4 1011.8 0.0
24/02:30am 21.6 18.6 7.8 41 7.4 N 13 19 7 10 1013.9 1012.4 0.0
24/02:00am 18.4 16.5 11.7 65 3.8 NNW 13 17 7 9 1014.4 1012.8 0.0
24/01:30am 15.1 12.0 11.5 79 2.0 N 19 24 10 13 1014.9 1013.3 0.0
24/01:00am 14.9 9.9 11.1 78 2.1 NNE 28 33 15 18 1015.1 1013.6 0.0
24/12:30am 13.7 8.8 10.1 79 1.9 NNE 26 35 14 19 1014.9 1013.3 0.0
24/12:00am 12.2 9.9 9.0 81 1.7 NNE 11 17 6 9 1015.4 1013.9 0.0
 
Date/Time
EDT
Temp
°C
App
Temp
°C
Dew
Point
Rel
Hum
%
Delta-T
°C
Wind Press
QNH
hPa
Press
MSL
hPa
Rain
since 9 am
mm
Dir
 
Spd
km/h
Gust
km/h
Spd
kts
Gust
kts
23/11:30pm 11.8 8.8 7.7 76 2.1 N 13 15 7 8 1015.7 1014.1 0.0
23/11:00pm 11.3 9.6 8.5 83 1.4 NNE 7 9 4 5 1016.2 1014.7 0.0
23/10:30pm 11.5 10.6 9.1 85 1.3 SSW 4 9 2 5 1016.5 1015.0 0.0
23/10:00pm 11.7 11.4 8.6 81 1.6 CALM 0 0 0 0 1016.8 1015.3 0.0
23/09:30pm 11.6 9.5 8.3 80 1.7 WSW 9 13 5 7 1016.7 1015.2 0.0
23/09:00pm 11.7 9.6 8.4 80 1.7 SW 9 11 5 6 1016.3 1014.8 0.0
23/08:30pm 12.0 9.6 8.7 80 1.7 SW 11 17 6 9 1016.2 1014.7 0.0
23/08:00pm 13.0 10.4 9.4 79 1.9 SSW 13 19 7 10 1015.4 1013.9 0.0
23/07:30pm 14.4 12.3 11.2 81 1.8 SSW 13 19 7 10 1015.0 1013.5 0.0
23/07:00pm 15.8 14.1 12.5 81 1.9 SW 13 19 7 10 1013.8 1012.2 0.0
23/06:30pm 18.5 17.7 14.0 75 2.7 SSW 11 17 6 9 1013.3 1011.7 0.0
23/06:00pm 19.5 18.9 14.7 74 2.9 SW 11 17 6 9 1013.1 1011.5 0.0
23/05:30pm 20.5 20.7 15.7 74 3.0 SSW 9 13 5 7 1012.9 1011.3 0.0
23/05:00pm 21.7 21.5 16.6 73 3.2 SW 13 17 7 9 1012.5 1010.9 0.0
23/04:30pm 23.3 23.3 17.3 69 3.8 SSW 13 20 7 11 1012.2 1010.6 0.0
23/04:00pm 23.8 24.1 17.1 66 4.3 S 11 19 6 10 1012.0 1010.4 0.0
23/03:30pm 23.4 22.9 16.9 67 4.1 S 15 20 8 11 1011.8 1010.2 0.0
23/03:00pm 23.3 23.0 17.3 69 3.8 SSW 15 28 8 15 1012.1 1010.5 0.0
23/02:30pm 24.1 24.0 17.8 68 4.1 SSW 15 22 8 12 1012.0 1010.4 0.0
23/02:00pm 24.6 24.6 17.3 64 4.7 S 13 22 7 12 1012.0 1010.4 0.0
23/01:30pm 25.1 25.3 15.7 56 5.9 SE 9 15 5 8 1012.3 1010.7 0.0
23/01:00pm 24.3 24.1 15.8 59 5.3 S 11 20 6 11 1012.5 1010.9 0.0
23/12:30pm 24.1 24.4 16.9 64 4.6 SSE 11 17 6 9 1012.8 1011.2 0.0
23/12:00pm 23.6 24.2 15.9 62 4.8 S 7 13 4 7 1013.1 1011.5 0.0
23/11:30am 22.6 22.3 14.4 60 5.0 S 9 17 5 9 1013.5 1011.9 0.0
23/11:00am 21.9 21.4 15.0 65 4.2 S 11 15 6 8 1013.7 1012.1 0.0
23/10:30am 20.9 21.0 15.4 71 3.4 S 9 13 5 7 1013.8 1012.2 0.0
23/10:00am 19.7 19.3 14.1 70 3.3 S 9 13 5 7 1013.9 1012.4 0.0
23/09:30am 19.3 18.8 13.7 70 3.3 S 9 15 5 8 1013.8 1012.2 0.0
23/09:00am 18.6 18.0 13.5 72 3.0 S 9 15 5 8 1013.9 1012.4 0.0
23/08:30am 18.3 17.0 13.6 74 2.8 S 13 19 7 10 1013.7 1012.1 0.0
23/08:00am 20.0 20.3 13.5 66 3.9 S 4 11 2 6 1013.5 1011.9 0.0
23/07:30am 18.9 18.9 13.5 71 3.2 W 6 7 3 4 1013.0 1011.4 0.0
23/07:00am 17.4 17.0 12.9 75 2.6 NNE 7 9 4 5 1013.0 1011.4 0.0
23/06:30am 17.8 17.0 10.9 64 3.9 N 6 7 3 4 1012.9 1011.3 0.0
23/06:00am 17.2 15.5 11.2 68 3.4 N 11 15 6 8 1012.5 1010.9 0.0
23/05:30am 15.4 14.0 11.0 75 2.4 N 9 13 5 7 1012.3 1010.7 0.0
23/05:00am 16.3 14.2 11.0 71 3.0 N 13 17 7 9 1011.9 1010.3 0.0
23/04:30am 16.5 14.6 10.6 68 3.3 N 11 15 6 8 1011.7 1010.1 0.0
23/04:00am 16.9 15.4 10.7 67 3.4 N 9 11 5 6 1011.8 1010.2 0.0
23/03:30am 18.6 15.6 10.7 60 4.4 WSW 17 24 9 13 1011.7 1010.1 0.0
23/03:00am 19.3 16.4 11.1 59 4.6 W 17 28 9 15 1011.7 1010.1 0.0
23/02:30am 19.6 16.1 10.9 57 4.9 W 20 28 11 15 1012.0 1010.4 0.0
23/02:00am 20.3 14.3 10.7 54 5.4 W 33 54 18 29 1012.2 1010.6 0.0
23/01:56am 20.6 14.2 10.7 53 5.6 W 35 54 19 29 1012.3 1010.7 0.0
23/01:54am 20.6 13.4 10.4 52 5.7 WNW 39 54 21 29 1012.3 1010.7 0.0
23/01:30am 20.6 17.0 10.4 52 5.7 WNW 20 30 11 16 1011.8 1010.2 0.0
23/01:02am 20.7 15.7 11.1 54 5.5 NW 28 46 15 25 1011.9 1010.3 0.0
23/01:00am 20.9 15.4 10.7 52 5.8 NW 30 46 16 25 1012.0 1010.4 0.0
23/12:38am 22.3 16.7 8.8 42 7.4 WNW 28 50 15 27 1011.2 1009.6 0.0
23/12:30am 21.7 17.5 9.6 46 6.7 WNW 22 44 12 24 1011.6 1010.0 0.0
23/12:06am 22.2 15.3 9.0 43 7.3 NW 35 72 19 39 1010.8 1009.2 0.0
23/12:02am 22.3 16.7 8.8 42 7.4 NW 28 48 15 26 1011.0 1009.4 0.0
23/12:00am 22.4 17.0 8.1 40 7.8 NW 26 48 14 26 1011.1 1009.5 0.0
 
Date/Time
EDT
Temp
°C
App
Temp
°C
Dew
Point
Rel
Hum
%
Delta-T
°C
Wind Press
QNH
hPa
Press
MSL
hPa
Rain
since 9 am
mm
Dir
 
Spd
km/h
Gust
km/h
Spd
kts
Gust
kts
22/11:30pm 23.0 14.4 6.7 35 8.7 NW 41 67 22 36 1010.8 1009.2 0.0
22/11:00pm 23.1 16.9 6.0 33 9.0 NW 28 50 15 27 1010.9 1009.3 0.0
22/10:30pm 23.3 16.7 4.3 29 9.7 NW 28 48 15 26 1010.8 1009.2 0.0
22/10:29pm 23.1 16.8 5.5 32 9.2 NW 28 48 15 26 1010.8 1009.2 0.0
22/10:00pm 22.9 18.8 4.4 30 9.5 N 15 28 8 15 1011.1 1009.5 0.0
22/09:30pm 22.4 19.5 4.5 31 9.1 NNW 9 17 5 9 1011.4 1009.7 0.0
22/09:00pm 20.9 18.4 6.4 39 7.6 NE 9 15 5 8 1011.7 1010.1 0.0
22/08:30pm 21.3 18.0 4.4 33 8.5 N 11 15 6 8 1011.7 1010.1 0.0
22/08:00pm 21.1 18.4 5.5 36 8.1 NNE 9 28 5 15 1011.5 1009.8 0.0
22/07:30pm 21.6 18.1 5.5 35 8.3 NNW 13 19 7 10 1011.9 1010.3 0.0
22/07:00pm 21.1 19.3 8.0 43 7.1 NNE 7 11 4 6 1011.7 1010.1 0.0
22/06:30pm 22.2 20.3 9.0 43 7.3 N 9 17 5 9 1011.5 1009.8 0.0
22/06:00pm 22.4 19.4 7.8 39 7.9 NW 13 20 7 11 1011.4 1009.7 0.0
22/05:30pm 23.0 20.5 6.7 35 8.7 NNW 9 17 5 9 1011.4 1009.7 0.0
22/05:00pm 22.4 19.5 8.1 40 7.8 N 13 24 7 13 1011.2 1009.6 0.0
22/04:30pm 22.4 23.1 15.5 65 4.3 W 6 13 3 7 1011.8 1010.2 0.0
22/04:00pm 22.8 23.3 15.6 64 4.5 SW 7 13 4 7 1012.1 1010.5 0.0
22/03:30pm 23.6 23.4 14.6 57 5.5 S 9 13 5 7 1012.4 1010.8 0.0
22/03:00pm 24.2 22.9 13.7 52 6.4 S 13 20 7 11 1012.8 1011.2 0.0
22/02:30pm 24.6 23.4 14.1 52 6.4 SSE 13 19 7 10 1012.5 1010.9 0.0
22/02:00pm 24.1 22.6 11.8 46 7.2 SSE 11 17 6 9 1012.6 1011.0 0.0
22/01:30pm 23.8 22.6 13.9 54 6.0 S 13 19 7 10 1012.8 1011.2 0.0
22/01:00pm 23.6 22.6 13.5 53 6.1 SSW 11 22 6 12 1012.9 1011.3 0.0
22/12:30pm 24.1 23.2 12.7 49 6.8 SW 9 15 5 8 1012.9 1011.3 0.0
22/12:00pm 23.3 22.7 13.5 54 5.9 NE 9 13 5 7 1012.8 1011.2 0.0
22/11:30am 22.3 20.6 12.5 53 5.8 ENE 13 17 7 9 1012.8 1011.2 0.0
22/11:00am 20.6 19.5 14.3 67 3.8 NNE 13 17 7 9 1012.9 1011.3 0.0
22/10:30am 19.2 17.0 13.4 69 3.4 NNE 17 20 9 11 1012.9 1011.3 0.0
22/10:00am 17.8 15.0 12.5 71 3.1 NNE 19 24 10 13 1013.1 1011.5 0.0
22/09:30am 17.2 14.3 12.9 76 2.5 NNE 20 26 11 14 1013.3 1011.7 0.0
22/09:00am 16.1 13.1 12.1 77 2.3 NNE 19 28 10 15 1013.5 1011.9 0.0
22/08:30am 15.1 11.1 11.9 81 1.8 NNE 24 30 13 16 1013.5 1011.9 0.0
22/08:00am 13.4 10.6 11.5 88 1.1 NE 17 22 9 12 1013.5 1011.9 0.0
22/07:30am 13.1 10.3 11.3 89 1.0 NNE 17 24 9 13 1013.4 1011.8 0.0
22/07:00am 12.9 10.1 11.3 90 0.9 N 17 22 9 12 1013.3 1011.7 0.0
22/06:30am 12.0 9.0 10.7 92 0.7 N 17 22 9 12 1013.1 1011.5 0.0
22/06:00am 11.4 7.7 10.3 93 0.6 N 20 24 11 13 1013.0 1011.4 0.0
22/05:30am 11.1 7.0 10.2 94 0.5 N 22 28 12 15 1012.8 1011.2 0.0
22/05:00am 10.9 7.2 10.1 95 0.4 N 20 24 11 13 1012.8 1011.2 0.0
22/04:30am 10.6 7.4 10.1 97 0.3 N 17 22 9 12 1012.8 1011.2 0.0
22/04:00am 9.6 6.9 9.1 97 0.3 NNE 13 17 7 9 1013.1 1011.5 0.0
22/03:30am 9.8 7.6 9.3 97 0.3 N 11 15 6 8 1013.1 1011.5 0.0
22/03:00am 9.9 7.7 9.3 96 0.3 N 11 13 6 7 1013.5 1011.9 0.0
22/02:30am 10.4 9.3 9.8 96 0.3 NNE 6 13 3 7 1013.8 1012.2 0.0
22/02:00am 10.7 8.6 9.8 94 0.5 N 11 13 6 7 1014.2 1012.6 0.0
22/01:30am 12.0 11.0 11.1 94 0.5 NNE 7 9 4 5 1014.6 1013.0 0.0
22/01:00am 12.1 10.0 11.3 95 0.4 N 13 17 7 9 1014.8 1013.2 0.0
22/12:30am 11.7 10.4 11.2 97 0.3 NNE 9 13 5 7 1015.0 1013.5 0.0
22/12:00am 11.2 9.8 10.9 98 0.2 NNE 9 13 5 7 1015.3 1013.8 0.0
 
Date/Time
EDT
Temp
°C
App
Temp
°C
Dew
Point
Rel
Hum
%
Delta-T
°C
Wind Press
QNH
hPa
Press
MSL
hPa
Rain
since 9 am
mm
Dir
 
Spd
km/h
Gust
km/h
Spd
kts
Gust
kts
21/11:30pm 11.0 10.1 10.7 98 0.2 N 6 7 3 4 1015.3 1013.8 0.0
21/11:00pm 10.6 9.0 10.3 98 0.2 N 9 11 5 6 1015.2 1013.7 0.0
21/10:30pm 10.3 7.9 10.0 98 0.2 N 13 15 7 8 1015.1 1013.6 0.0
21/10:00pm 10.2 8.4 9.6 96 0.3 NNE 9 9 5 5 1015.0 1013.5 0.0
21/09:30pm 11.9 12.3 11.1 95 0.4 CALM 0 0 0 0 1014.8 1013.2 0.0
21/09:00pm 12.4 12.8 11.3 93 0.6 CALM 0 0 0 0 1014.6 1013.0 0.0
21/08:30pm 12.5 12.2 11.4 93 0.6 SW 4 7 2 4 1014.4 1012.8 0.0
21/08:00pm 12.7 12.0 11.4 92 0.7 S 6 9 3 5 1013.9 1012.4 0.0
21/07:30pm 12.7 11.8 11.4 92 0.7 SSW 7 11 4 6 1013.5 1011.9 0.0
21/07:00pm 12.9 12.2 12.0 94 0.5 SSW 7 13 4 7 1013.0 1011.4 0.0
21/06:30pm 12.7 11.6 11.9 95 0.4 S 9 15 5 8 1012.4 1010.8 0.0
21/06:00pm 12.6 12.0 12.3 98 0.2 SSW 7 11 4 6 1012.1 1010.5 0.0
21/05:30pm 12.5 11.5 12.3 99 0.1 SSW 9 13 5 7 1011.8 1010.2 0.0
21/05:00pm 12.7 11.8 12.5 99 0.1 S 9 13 5 7 1011.6 1010.0 0.0
21/04:30pm 12.6 11.6 12.4 99 0.1 S 9 15 5 8 1011.2 1009.6 0.0
21/04:00pm 12.9 12.0 12.6 98 0.2 S 9 13 5 7 1011.1 1009.5 0.0
21/03:30pm 12.9 11.6 12.4 97 0.3 S 11 19 6 10 1011.0 1009.4 0.0
21/03:00pm 13.4 12.2 12.8 96 0.3 S 11 20 6 11 1010.9 1009.3 0.0
21/02:30pm 13.8 12.7 13.2 96 0.3 SSW 11 17 6 9 1010.7 1009.1 0.0
21/02:00pm 14.5 13.1 13.4 93 0.6 S 13 20 7 11 1010.5 1008.9 0.0
21/01:30pm 14.6 13.6 13.5 93 0.6 SSW 11 19 6 10 1010.5 1008.9 0.0
21/01:00pm 15.1 13.8 13.6 91 0.9 S 13 19 7 10 1010.4 1008.8 0.0
21/12:30pm 14.9 13.6 13.8 93 0.6 SSW 13 24 7 13 1010.3 1008.6 0.0
21/12:00pm 17.2 16.4 15.0 87 1.3 SSW 13 19 7 10 1010.1 1008.4 0.0
21/11:30am 18.3 17.0 14.8 80 2.1 SSW 15 26 8 14 1009.7 1008.1 0.0
21/11:00am 19.4 18.5 13.6 69 3.4 S 11 19 6 10 1009.3 1007.7 0.0

Other Formats:

Comma delimited format used in spreadsheet applications
http://www.bom.gov.au/fwo/IDV60801/IDV60801.94913.axf

JavaScript Object Notation format (JSON) in row-major order
http://www.bom.gov.au/fwo/IDV60801/IDV60801.94913.json